createdAt,value
2019-05-29T00:00:14.705Z,100801.45
2019-05-29T00:02:43.598Z,100803.91
2019-05-29T00:05:12.587Z,100810.02
2019-05-29T00:07:41.195Z,100809.49
2019-05-29T00:10:10.522Z,100808.38
2019-05-29T00:12:39.308Z,100814.64
2019-05-29T00:15:08.424Z,100820.14
2019-05-29T00:17:37.017Z,100812.02
2019-05-29T00:20:06.462Z,100815.11
2019-05-29T00:22:35.130Z,100827.04
2019-05-29T00:25:04.852Z,100826.44
2019-05-29T00:27:33.601Z,100825.89
2019-05-29T00:30:02.252Z,100825.05
2019-05-29T00:32:31.850Z,100829.66
2019-05-29T00:35:00.435Z,100835.32
2019-05-29T00:37:29.064Z,100835.41
2019-05-29T00:39:57.660Z,100841.37
2019-05-29T00:42:26.632Z,100845.10
2019-05-29T00:44:55.245Z,100844.46
2019-05-29T00:47:23.824Z,100837.89
2019-05-29T00:49:52.403Z,100840.28
2019-05-29T00:52:21.045Z,100845.17
2019-05-29T00:54:49.628Z,100846.81
2019-05-29T00:57:19.042Z,100846.69
2019-05-29T00:59:47.865Z,100862.48
2019-05-29T01:02:17.783Z,100867.55
2019-05-29T01:04:46.506Z,100872.44
2019-05-29T01:07:16.058Z,100875.16
2019-05-29T01:09:44.961Z,100877.77
2019-05-29T01:12:13.519Z,100869.58
2019-05-29T01:14:50.094Z,100880.64
2019-05-29T01:17:13.643Z,100880.38
2019-05-29T01:19:42.496Z,100885.25
2019-05-29T01:22:12.241Z,100890.43
2019-05-29T01:24:41.040Z,100890.93
2019-05-29T01:27:09.606Z,100891.11
2019-05-29T01:29:38.228Z,100890.61
2019-05-29T01:32:06.869Z,100894.45
2019-05-29T01:34:35.511Z,100902.20
2019-05-29T01:37:04.135Z,100905.94
2019-05-29T01:39:32.780Z,100907.45
2019-05-29T01:42:01.349Z,100913.50
2019-05-29T01:44:29.994Z,100922.83
2019-05-29T01:46:58.546Z,100924.08
2019-05-29T01:49:28.105Z,100927.64
2019-05-29T01:51:56.705Z,100925.02
2019-05-29T01:54:25.531Z,100931.88
2019-05-29T01:56:54.385Z,100933.59
2019-05-29T01:59:23.958Z,100935.47
2019-05-29T02:01:52.793Z,100933.30
2019-05-29T02:04:21.852Z,100939.67
2019-05-29T02:06:50.609Z,100938.87
2019-05-29T02:09:20.256Z,100940.70
2019-05-29T02:11:48.885Z,100951.43
2019-05-29T02:14:18.465Z,100950.71
2019-05-29T02:16:47.132Z,100951.31
2019-05-29T02:19:15.793Z,100949.95
2019-05-29T02:21:44.367Z,100950.98
2019-05-29T02:24:12.996Z,100955.79
2019-05-29T02:26:41.556Z,100970.62
2019-05-29T02:29:10.196Z,100970.20
2019-05-29T02:31:38.763Z,100976.95
2019-05-29T02:34:07.675Z,100973.70
2019-05-29T02:36:36.222Z,100971.89
2019-05-29T02:39:07.427Z,100977.10
2019-05-29T02:41:36.076Z,100985.63
2019-05-29T02:44:05.156Z,100987.72
2019-05-29T02:46:33.790Z,100984.73
2019-05-29T02:49:02.391Z,100984.35
2019-05-29T02:51:31.492Z,100992.23
2019-05-29T02:54:00.103Z,100990.56
2019-05-29T02:56:29.114Z,100989.53
2019-05-29T02:58:58.272Z,100997.41
2019-05-29T03:01:27.768Z,100996.39
2019-05-29T03:03:56.897Z,101010.54
2019-05-29T03:06:26.309Z,101013.31
2019-05-29T03:08:55.422Z,101021.52
2019-05-29T03:11:25.200Z,101023.50
2019-05-29T03:13:54.350Z,101032.84
2019-05-29T03:16:23.953Z,101041.53
2019-05-29T03:18:53.275Z,101046.66
2019-05-29T03:21:21.942Z,101046.78
2019-05-29T03:23:50.554Z,101059.41
2019-05-29T03:26:19.108Z,101069.67
2019-05-29T03:28:47.786Z,101071.81
2019-05-29T03:31:16.565Z,101072.69
2019-05-29T03:33:49.720Z,101076.05
2019-05-29T03:36:15.632Z,101076.06
2019-05-29T03:38:44.274Z,101086.56
2019-05-29T03:41:12.857Z,101091.25
2019-05-29T03:43:41.436Z,101089.90
2019-05-29T03:46:29.065Z,101104.02
2019-05-29T03:48:40.318Z,101102.27
2019-05-29T03:51:08.903Z,101109.56
2019-05-29T03:53:38.490Z,101110.97
2019-05-29T03:56:07.454Z,101112.16
2019-05-29T03:58:37.730Z,101106.69
2019-05-29T04:01:06.629Z,101111.27
2019-05-29T04:03:36.066Z,101120.31
2019-05-29T04:06:05.956Z,101126.97
2019-05-29T04:08:35.749Z,101135.09
2019-05-29T04:11:05.009Z,101139.41
2019-05-29T04:13:34.673Z,101139.78
2019-05-29T04:16:04.012Z,101145.02
2019-05-29T04:18:33.988Z,101146.28
2019-05-29T04:21:03.351Z,101152.09
2019-05-29T04:23:36.007Z,101158.52
2019-05-29T04:26:05.086Z,101165.70
2019-05-29T04:28:34.817Z,101169.47
2019-05-29T04:31:03.952Z,101169.58
2019-05-29T04:33:33.104Z,101177.62
2019-05-29T04:36:02.844Z,101174.36
2019-05-29T04:38:33.223Z,101179.17
2019-05-29T04:41:01.790Z,101184.67
2019-05-29T04:43:31.150Z,101185.17
2019-05-29T04:46:00.467Z,101190.98
2019-05-29T04:48:29.808Z,101193.94
2019-05-29T04:50:59.381Z,101198.12
2019-05-29T04:53:29.446Z,101199.51
2019-05-29T04:55:58.287Z,101197.75
2019-05-29T04:58:26.852Z,101197.47
2019-05-29T05:00:59.012Z,101209.11
2019-05-29T05:03:25.816Z,101210.98
2019-05-29T05:05:54.497Z,101215.44
2019-05-29T05:08:23.052Z,101217.84
2019-05-29T05:10:51.770Z,101223.27
2019-05-29T05:13:20.907Z,101225.38
2019-05-29T05:15:50.377Z,101235.08
2019-05-29T05:18:18.943Z,101236.80
2019-05-29T05:20:47.555Z,101241.98
2019-05-29T05:23:16.147Z,101239.02
2019-05-29T05:25:44.768Z,101245.69
2019-05-29T05:28:13.339Z,101256.59
2019-05-29T05:30:42.002Z,101255.84
2019-05-29T05:33:10.574Z,101261.20
2019-05-29T05:35:39.238Z,101270.70
2019-05-29T05:38:07.806Z,101273.84
2019-05-29T05:40:39.488Z,101270.77
2019-05-29T05:43:06.711Z,101276.69
2019-05-29T05:45:35.412Z,101289.31
2019-05-29T05:48:04.000Z,101285.63
2019-05-29T05:50:33.294Z,101292.19
2019-05-29T05:53:02.153Z,101297.62
2019-05-29T05:55:31.499Z,101300.88
2019-05-29T05:58:00.226Z,101297.38
2019-05-29T06:00:34.119Z,101300.09
2019-05-29T06:03:02.764Z,101306.86
2019-05-29T06:05:32.120Z,101317.41
2019-05-29T06:08:00.957Z,101321.31
2019-05-29T06:10:29.616Z,101323.44
2019-05-29T06:12:58.263Z,101329.61
2019-05-29T06:15:26.868Z,101333.27
2019-05-29T06:18:17.150Z,101334.69
2019-05-29T06:20:25.838Z,101338.28
2019-05-29T06:22:54.456Z,101349.86
2019-05-29T06:25:23.214Z,101347.55
2019-05-29T06:27:51.884Z,101346.23
2019-05-29T06:30:22.018Z,101344.25
2019-05-29T06:32:50.750Z,101350.91
2019-05-29T06:35:19.382Z,101350.15
2019-05-29T06:37:48.004Z,101362.05
2019-05-29T06:40:36.348Z,101369.63
2019-05-29T06:43:07.063Z,101366.98
2019-05-29T06:45:37.826Z,101365.22
2019-05-29T06:48:08.013Z,101376.42
2019-05-29T06:50:37.378Z,101378.29
2019-05-29T06:53:06.240Z,101384.42
2019-05-29T06:55:35.793Z,101382.23
2019-05-29T06:58:04.773Z,101378.06
2019-05-29T07:00:35.693Z,101391.98
2019-05-29T07:03:03.653Z,101391.81
2019-05-29T07:05:32.269Z,101402.59
2019-05-29T07:08:17.096Z,101410.47
2019-05-29T07:10:31.233Z,101403.52
2019-05-29T07:12:59.825Z,101415.73
2019-05-29T07:15:28.550Z,101410.24
2019-05-29T07:17:57.190Z,101413.97
2019-05-29T07:20:25.820Z,101417.36
2019-05-29T07:22:54.432Z,101424.30
2019-05-29T07:25:23.099Z,101419.78
2019-05-29T07:27:51.682Z,101422.50
2019-05-29T07:30:20.946Z,101424.43
2019-05-29T07:32:56.959Z,101427.34
2019-05-29T07:35:19.892Z,101439.68
2019-05-29T07:37:48.624Z,101442.70
2019-05-29T07:40:18.316Z,101441.66
2019-05-29T07:42:53.633Z,101444.94
2019-05-29T07:45:17.693Z,101451.92
2019-05-29T07:47:46.821Z,101447.45
2019-05-29T07:50:17.369Z,101446.51
2019-05-29T07:52:47.250Z,101449.42
2019-05-29T07:55:16.495Z,101451.88
2019-05-29T07:57:46.995Z,101456.35
2019-05-29T08:00:16.506Z,101460.66
2019-05-29T08:02:45.495Z,101458.28
2019-05-29T08:05:14.783Z,101453.83
2019-05-29T08:07:43.594Z,101457.52
2019-05-29T08:10:12.500Z,101462.20
2019-05-29T08:12:46.273Z,101468.53
2019-05-29T08:15:11.556Z,101468.66
2019-05-29T08:17:40.124Z,101467.39
2019-05-29T08:20:09.014Z,101475.11
2019-05-29T08:22:37.576Z,101481.55
2019-05-29T08:25:07.033Z,101490.16
2019-05-29T08:27:36.064Z,101482.22
2019-05-29T08:30:08.260Z,101483.59
2019-05-29T08:32:36.936Z,101482.14
2019-05-29T08:35:07.034Z,101482.39
2019-05-29T08:37:35.644Z,101488.00
2019-05-29T08:40:06.669Z,101495.84
2019-05-29T08:42:35.347Z,101489.84
2019-05-29T08:45:05.869Z,101487.02
2019-05-29T08:47:34.517Z,101492.41
2019-05-29T08:50:17.233Z,101494.68
2019-05-29T08:52:34.364Z,101498.74
2019-05-29T08:55:03.019Z,101504.47
2019-05-29T08:57:31.657Z,101498.83
2019-05-29T09:00:00.222Z,101509.22
2019-05-29T09:02:28.811Z,101512.92
2019-05-29T09:04:57.393Z,101517.17
2019-05-29T09:07:26.016Z,101525.44
2019-05-29T09:09:54.608Z,101518.48
2019-05-29T09:12:23.199Z,101516.64
2019-05-29T09:14:51.812Z,101513.31
2019-05-29T09:17:20.424Z,101519.89
2019-05-29T09:19:49.050Z,101518.52
2019-05-29T09:22:20.910Z,101523.55
2019-05-29T09:24:49.740Z,101525.09
2019-05-29T09:27:19.203Z,101526.80
2019-05-29T09:29:47.977Z,101525.60
2019-05-29T09:32:18.044Z,101517.89
2019-05-29T09:34:47.788Z,101536.48
2019-05-29T09:37:17.394Z,101529.21
2019-05-29T09:39:46.865Z,101522.38
2019-05-29T09:42:17.373Z,101529.92
2019-05-29T09:44:45.832Z,101530.86
2019-05-29T09:47:16.796Z,101535.08
2019-05-29T09:49:44.801Z,101544.41
2019-05-29T09:52:13.385Z,101544.31
2019-05-29T09:54:41.993Z,101550.09
2019-05-29T09:57:10.709Z,101544.25
2019-05-29T09:59:39.319Z,101550.77
2019-05-29T10:02:09.143Z,101551.08
2019-05-29T10:04:38.264Z,101559.06
2019-05-29T10:07:06.916Z,101556.47
2019-05-29T10:09:35.571Z,101556.02
2019-05-29T10:12:06.825Z,101563.14
2019-05-29T10:14:34.903Z,101564.44
2019-05-29T10:17:11.089Z,101556.23
2019-05-29T10:19:34.115Z,101558.00
2019-05-29T10:22:03.966Z,101567.58
2019-05-29T10:24:33.033Z,101569.05
2019-05-29T10:27:03.463Z,101564.46
2019-05-29T10:29:32.329Z,101576.36
2019-05-29T10:32:01.060Z,101565.84
2019-05-29T10:34:29.708Z,101574.47
2019-05-29T10:36:58.356Z,101567.69
2019-05-29T10:39:26.944Z,101573.74
2019-05-29T10:41:55.608Z,101580.16
2019-05-29T10:44:24.168Z,101581.95
2019-05-29T10:46:54.722Z,101577.98
2019-05-29T10:49:23.672Z,101572.39
2019-05-29T10:52:09.058Z,101574.95
2019-05-29T10:54:22.641Z,101574.44
2019-05-29T10:56:52.788Z,101578.76
2019-05-29T10:59:21.768Z,101580.72
2019-05-29T11:01:51.288Z,101590.48
2019-05-29T11:04:20.509Z,101578.65
2019-05-29T11:06:50.188Z,101582.09
2019-05-29T11:09:18.955Z,101573.78
2019-05-29T11:11:48.481Z,101574.76
2019-05-29T11:14:17.204Z,101567.84
2019-05-29T11:16:47.046Z,101564.11
2019-05-29T11:19:15.847Z,101578.52
2019-05-29T11:21:44.553Z,101579.31
2019-05-29T11:24:13.108Z,101576.28
2019-05-29T11:26:41.759Z,101576.08
2019-05-29T11:29:10.324Z,101580.66
2019-05-29T11:31:39.028Z,101586.10
2019-05-29T11:34:07.671Z,101577.98
2019-05-29T11:36:36.296Z,101579.67
2019-05-29T11:39:08.597Z,101580.55
2019-05-29T11:41:37.613Z,101577.78
2019-05-29T11:44:06.247Z,101576.63
2019-05-29T11:46:35.255Z,101588.16
2019-05-29T11:49:03.908Z,101577.09
2019-05-29T11:51:32.549Z,101576.57
2019-05-29T11:54:02.453Z,101572.86
2019-05-29T11:56:31.342Z,101573.98
2019-05-29T11:59:00.065Z,101576.53
2019-05-29T12:01:28.716Z,101575.56
2019-05-29T12:04:18.117Z,101583.75
2019-05-29T12:06:27.694Z,101579.13
2019-05-29T12:08:57.788Z,101581.33
2019-05-29T12:11:26.816Z,101579.31
2019-05-29T12:13:56.110Z,101574.78
2019-05-29T12:16:25.030Z,101584.68
2019-05-29T12:18:53.737Z,101576.97
2019-05-29T12:21:22.375Z,101584.31
2019-05-29T12:23:51.949Z,101584.98
2019-05-29T12:26:23.052Z,101587.61
2019-05-29T12:28:51.021Z,101591.55
2019-05-29T12:31:20.040Z,101586.63
2019-05-29T12:33:48.647Z,101578.25
2019-05-29T12:36:17.375Z,101576.21
2019-05-29T12:38:45.967Z,101584.02
2019-05-29T12:41:14.632Z,101565.26
2019-05-29T12:43:43.226Z,101577.54
2019-05-29T12:46:11.925Z,101575.84
2019-05-29T12:48:40.526Z,101588.58
2019-05-29T12:51:09.186Z,101583.90
2019-05-29T12:53:37.843Z,101583.52
2019-05-29T12:56:06.578Z,101580.20
2019-05-29T12:58:35.239Z,101576.72
2019-05-29T13:01:05.142Z,101583.45
2019-05-29T13:03:34.860Z,101580.98
2019-05-29T13:06:04.456Z,101587.13
2019-05-29T13:08:33.258Z,101582.30
2019-05-29T13:11:02.612Z,101579.14
2019-05-29T13:13:31.344Z,101587.56
2019-05-29T13:16:00.840Z,101584.09
2019-05-29T13:18:31.697Z,101578.12
2019-05-29T13:21:00.994Z,101573.97
2019-05-29T13:23:44.164Z,101578.86
2019-05-29T13:25:59.898Z,101579.70
2019-05-29T13:28:28.478Z,101576.92
2019-05-29T13:30:57.786Z,101572.30
2019-05-29T13:33:26.380Z,101575.14
2019-05-29T13:35:56.266Z,101570.17
2019-05-29T13:38:24.985Z,101578.87
2019-05-29T13:40:53.572Z,101571.69
2019-05-29T13:43:22.617Z,101572.55
2019-05-29T13:45:51.275Z,101575.27
2019-05-29T13:48:22.739Z,101570.89
2019-05-29T13:50:50.232Z,101564.23
2019-05-29T13:53:18.845Z,101575.02
2019-05-29T13:55:47.452Z,101570.80
2019-05-29T13:58:16.047Z,101572.21
2019-05-29T14:00:44.686Z,101579.87
2019-05-29T14:03:13.273Z,101576.83
2019-05-29T14:05:41.881Z,101574.70
2019-05-29T14:08:10.547Z,101573.52
2019-05-29T14:10:39.174Z,101578.07
2019-05-29T14:13:09.193Z,101581.02
2019-05-29T14:15:38.174Z,101580.95
2019-05-29T14:18:07.194Z,101582.88
2019-05-29T14:20:36.000Z,101583.76
2019-05-29T14:23:05.345Z,101593.16
2019-05-29T14:25:34.139Z,101602.61
2019-05-29T14:28:02.874Z,101602.25
2019-05-29T14:30:31.826Z,101600.94
2019-05-29T14:33:00.388Z,101601.58
2019-05-29T14:35:29.088Z,101604.13
2019-05-29T14:37:57.715Z,101604.64
2019-05-29T14:40:26.466Z,101608.25
2019-05-29T14:42:55.110Z,101597.61
2019-05-29T14:45:23.791Z,101595.86
2019-05-29T14:47:52.764Z,101601.33
2019-05-29T14:50:21.722Z,101606.93
2019-05-29T14:52:50.337Z,101595.98
2019-05-29T14:55:19.294Z,101599.42
2019-05-29T14:57:47.896Z,101599.48
2019-05-29T15:00:24.963Z,101609.72
2019-05-29T15:02:48.645Z,101598.98
2019-05-29T15:05:17.864Z,101603.98
2019-05-29T15:07:46.570Z,101606.14
2019-05-29T15:10:26.945Z,101607.44
2019-05-29T15:12:47.242Z,101609.23
2019-05-29T15:15:16.779Z,101610.75
2019-05-29T15:17:45.754Z,101619.76
2019-05-29T15:20:16.761Z,101618.47
2019-05-29T15:22:45.069Z,101612.27
2019-05-29T15:25:23.682Z,101606.77
2019-05-29T15:27:45.501Z,101611.15
2019-05-29T15:30:20.280Z,101607.84
2019-05-29T15:32:44.904Z,101602.78
2019-05-29T15:35:16.650Z,101609.17
2019-05-29T15:37:44.075Z,101608.84
2019-05-29T15:40:13.101Z,101621.88
2019-05-29T15:42:41.772Z,101609.36
2019-05-29T15:45:11.987Z,101619.69
2019-05-29T15:47:40.599Z,101613.05
2019-05-29T15:50:11.307Z,101618.33
2019-05-29T15:52:40.507Z,101617.30
2019-05-29T15:55:27.285Z,101625.36
2019-05-29T15:57:40.191Z,101621.45
2019-05-29T16:00:13.869Z,101617.69
2019-05-29T16:02:42.687Z,101618.38
2019-05-29T16:05:13.129Z,101623.09
2019-05-29T16:07:42.055Z,101620.28
2019-05-29T16:10:16.684Z,101616.52
2019-05-29T16:12:43.956Z,101621.78
2019-05-29T16:15:13.322Z,101627.96
2019-05-29T16:17:42.064Z,101623.45
2019-05-29T16:20:12.305Z,101626.48
2019-05-29T16:22:41.303Z,101629.13
2019-05-29T16:25:10.811Z,101632.72
2019-05-29T16:27:39.712Z,101637.45
2019-05-29T16:30:09.830Z,101635.17
2019-05-29T16:32:38.998Z,101638.95
2019-05-29T16:35:08.533Z,101638.85
2019-05-29T16:37:37.301Z,101640.95
2019-05-29T16:40:15.913Z,101648.89
2019-05-29T16:42:44.777Z,101651.55
2019-05-29T16:45:16.514Z,101650.87
2019-05-29T16:47:45.130Z,101649.05
2019-05-29T16:50:17.427Z,101656.46
2019-05-29T16:52:46.264Z,101647.81
2019-05-29T16:55:17.348Z,101651.30
2019-05-29T16:57:46.122Z,101653.89
2019-05-29T17:00:17.632Z,101654.61
2019-05-29T17:02:46.529Z,101656.40
2019-05-29T17:05:15.771Z,101664.08
2019-05-29T17:07:44.672Z,101660.91
2019-05-29T17:10:14.331Z,101670.39
2019-05-29T17:12:43.206Z,101671.28
2019-05-29T17:15:15.053Z,101663.31
2019-05-29T17:17:43.934Z,101666.28
2019-05-29T17:20:12.898Z,101667.62
2019-05-29T17:22:41.565Z,101668.30
2019-05-29T17:25:10.299Z,101665.97
2019-05-29T17:27:38.930Z,101677.32
2019-05-29T17:30:09.569Z,101678.08
2019-05-29T17:32:38.273Z,101687.56
2019-05-29T17:35:09.050Z,101688.22
2019-05-29T17:37:38.217Z,101685.35
2019-05-29T17:40:07.631Z,101688.25
2019-05-29T17:42:36.287Z,101695.13
2019-05-29T17:45:08.465Z,101689.89
2019-05-29T17:47:37.502Z,101691.41
2019-05-29T17:50:08.136Z,101692.97
2019-05-29T17:52:36.881Z,101696.77
2019-05-29T17:55:06.710Z,101690.59
2019-05-29T17:57:35.444Z,101695.18
2019-05-29T18:00:07.486Z,101706.16
2019-05-29T18:02:50.866Z,101704.51
2019-05-29T18:05:07.191Z,101704.02
2019-05-29T18:07:35.835Z,101709.36
2019-05-29T18:10:05.759Z,101711.30
2019-05-29T18:12:34.345Z,101710.80
2019-05-29T18:15:07.822Z,101713.85
2019-05-29T18:17:36.453Z,101716.23
2019-05-29T18:20:06.696Z,101715.75
2019-05-29T18:22:35.713Z,101720.24
2019-05-29T18:25:06.151Z,101715.35
2019-05-29T18:27:35.001Z,101715.02
2019-05-29T18:30:04.730Z,101715.77
2019-05-29T18:32:33.341Z,101726.02
2019-05-29T18:35:01.979Z,101728.50
2019-05-29T18:37:30.784Z,101725.56
2019-05-29T18:39:59.365Z,101734.80
2019-05-29T18:42:29.213Z,101731.00
2019-05-29T18:44:58.050Z,101736.25
2019-05-29T18:47:27.229Z,101738.59
2019-05-29T18:49:55.986Z,101740.97
2019-05-29T18:52:25.587Z,101745.87
2019-05-29T18:54:54.364Z,101745.45
2019-05-29T18:57:23.007Z,101748.48
2019-05-29T18:59:51.603Z,101747.81
2019-05-29T19:02:21.269Z,101751.09
2019-05-29T19:04:50.033Z,101753.03
2019-05-29T19:07:18.905Z,101747.09
2019-05-29T19:09:47.747Z,101758.81
2019-05-29T19:12:16.599Z,101759.42
2019-05-29T19:14:45.443Z,101761.35
2019-05-29T19:17:14.349Z,101763.08
2019-05-29T19:19:46.085Z,101765.14
2019-05-29T19:22:15.013Z,101765.58
2019-05-29T19:24:43.841Z,101766.14
2019-05-29T19:27:12.576Z,101771.31
2019-05-29T19:29:41.369Z,101773.55
2019-05-29T19:32:10.368Z,101774.91
2019-05-29T19:34:39.257Z,101778.82
2019-05-29T19:37:08.035Z,101782.29
2019-05-29T19:39:36.835Z,101779.94
2019-05-29T19:42:05.724Z,101785.96
2019-05-29T19:44:34.712Z,101787.90
2019-05-29T19:47:03.742Z,101791.76
2019-05-29T19:49:33.009Z,101798.85
2019-05-29T19:52:01.836Z,101803.33
2019-05-29T19:54:31.543Z,101804.16
2019-05-29T19:57:00.486Z,101801.50
2019-05-29T19:59:30.016Z,101812.03
2019-05-29T20:01:58.845Z,101813.46
2019-05-29T20:04:28.457Z,101814.84
2019-05-29T20:06:57.391Z,101812.37
2019-05-29T20:09:27.307Z,101820.30
2019-05-29T20:11:56.268Z,101812.42
2019-05-29T20:14:25.100Z,101825.55
2019-05-29T20:16:53.982Z,101823.15
2019-05-29T20:19:22.626Z,101828.95
2019-05-29T20:21:51.406Z,101830.95
2019-05-29T20:24:20.022Z,101830.64
2019-05-29T20:26:48.694Z,101827.66
2019-05-29T20:29:17.269Z,101830.78
2019-05-29T20:31:45.928Z,101836.55
2019-05-29T20:34:14.659Z,101832.86
2019-05-29T20:36:43.332Z,101836.55
2019-05-29T20:39:11.944Z,101838.73
2019-05-29T20:41:42.105Z,101840.94
2019-05-29T20:44:10.898Z,101846.45
2019-05-29T20:46:39.509Z,101847.81
2019-05-29T20:49:08.123Z,101849.20
2019-05-29T20:51:36.712Z,101852.79
2019-05-29T20:54:05.577Z,101846.47
2019-05-29T20:56:34.180Z,101845.82
2019-05-29T20:59:02.788Z,101846.45
2019-05-29T21:01:32.167Z,101848.66
2019-05-29T21:04:00.811Z,101851.40
2019-05-29T21:06:29.393Z,101848.08
2019-05-29T21:08:58.056Z,101851.41
2019-05-29T21:11:26.613Z,101848.02
2019-05-29T21:13:55.248Z,101851.59
2019-05-29T21:16:23.852Z,101849.90
2019-05-29T21:18:52.557Z,101852.64
2019-05-29T21:21:21.208Z,101853.54
2019-05-29T21:23:49.882Z,101858.67
2019-05-29T21:26:18.455Z,101862.95
2019-05-29T21:28:50.644Z,101859.82
2019-05-29T21:31:21.885Z,101858.70
2019-05-29T21:33:50.528Z,101860.35
2019-05-29T21:36:19.852Z,101867.84
2019-05-29T21:38:48.505Z,101859.77
2019-05-29T21:41:17.063Z,101867.34
2019-05-29T21:43:46.881Z,101872.59
2019-05-29T21:46:15.716Z,101873.33
2019-05-29T21:48:45.221Z,101866.57
2019-05-29T21:51:14.007Z,101864.89
2019-05-29T21:53:43.445Z,101870.68
2019-05-29T21:56:18.290Z,101873.87
2019-05-29T21:58:59.887Z,101875.59
2019-05-29T22:01:15.688Z,101869.55
2019-05-29T22:03:44.564Z,101874.81
2019-05-29T22:06:13.358Z,101878.77
2019-05-29T22:08:42.827Z,101880.11
2019-05-29T22:11:11.609Z,101875.73
2019-05-29T22:13:40.221Z,101882.34
2019-05-29T22:16:08.929Z,101880.59
2019-05-29T22:18:37.576Z,101885.16
2019-05-29T22:21:06.218Z,101886.56
2019-05-29T22:23:34.826Z,101894.75
2019-05-29T22:26:03.418Z,101886.88
2019-05-29T22:28:32.032Z,101886.05
2019-05-29T22:31:01.668Z,101887.95
2019-05-29T22:33:30.464Z,101888.14
2019-05-29T22:35:59.503Z,101886.55
2019-05-29T22:38:28.129Z,101885.26
2019-05-29T22:40:57.745Z,101891.79
2019-05-29T22:43:26.605Z,101894.81
2019-05-29T22:45:55.676Z,101902.69
2019-05-29T22:48:24.470Z,101898.94
2019-05-29T22:50:53.804Z,101895.28
2019-05-29T22:53:22.585Z,101897.56
2019-05-29T22:55:51.614Z,101893.83
2019-05-29T22:58:20.460Z,101892.53
2019-05-29T23:00:49.120Z,101891.68
2019-05-29T23:03:17.763Z,101892.20
2019-05-29T23:05:46.354Z,101896.14
2019-05-29T23:08:14.980Z,101896.34
2019-05-29T23:10:43.641Z,101894.66
2019-05-29T23:13:12.323Z,101897.31
2019-05-29T23:15:42.017Z,101898.73
2019-05-29T23:18:10.654Z,101897.75
2019-05-29T23:20:39.261Z,101890.97
2019-05-29T23:23:07.883Z,101895.86
2019-05-29T23:25:36.536Z,101891.70
2019-05-29T23:28:05.165Z,101898.81
2019-05-29T23:30:33.816Z,101894.72
2019-05-29T23:33:03.422Z,101898.73
2019-05-29T23:35:32.198Z,101895.30
2019-05-29T23:38:01.350Z,101887.63
2019-05-29T23:40:30.117Z,101889.34
2019-05-29T23:42:59.441Z,101886.11
2019-05-29T23:45:28.208Z,101880.97
2019-05-29T23:47:57.654Z,101884.82
2019-05-29T23:50:26.446Z,101882.22
2019-05-29T23:52:55.580Z,101887.39
2019-05-29T23:55:24.446Z,101877.66
2019-05-29T23:57:53.733Z,101876.34
